sensor_id;sensor_type;location;lat;lon;timestamp;P1;durP1;ratioP1;P2;durP2;ratioP2
84913;SDS011;75177;43.832;5.974;2024-03-29T00:01:34;29.42;;;10.45;;
84913;SDS011;75177;43.832;5.974;2024-03-29T00:03:59;21.52;;;9.02;;
84913;SDS011;75177;43.832;5.974;2024-03-29T00:06:25;22.25;;;10.13;;
84913;SDS011;75177;43.832;5.974;2024-03-29T00:08:50;17.38;;;6.75;;
84913;SDS011;75177;43.832;5.974;2024-03-29T00:11:15;16.15;;;4.90;;
84913;SDS011;75177;43.832;5.974;2024-03-29T00:13:41;21.27;;;4.25;;
84913;SDS011;75177;43.832;5.974;2024-03-29T00:16:06;9.93;;;3.75;;
84913;SDS011;75177;43.832;5.974;2024-03-29T00:18:32;11.48;;;4.45;;
84913;SDS011;75177;43.832;5.974;2024-03-29T00:20:57;16.52;;;4.47;;
84913;SDS011;75177;43.832;5.974;2024-03-29T00:23:22;15.32;;;4.65;;
84913;SDS011;75177;43.832;5.974;2024-03-29T00:25:48;13.50;;;5.93;;
84913;SDS011;75177;43.832;5.974;2024-03-29T00:28:13;18.70;;;7.00;;
84913;SDS011;75177;43.832;5.974;2024-03-29T00:30:39;10.32;;;4.97;;
84913;SDS011;75177;43.832;5.974;2024-03-29T00:33:04;15.93;;;4.22;;
84913;SDS011;75177;43.832;5.974;2024-03-29T00:35:30;18.00;;;5.63;;
84913;SDS011;75177;43.832;5.974;2024-03-29T00:37:56;18.90;;;8.05;;
84913;SDS011;75177;43.832;5.974;2024-03-29T00:40:21;22.05;;;8.73;;
84913;SDS011;75177;43.832;5.974;2024-03-29T00:42:46;17.95;;;7.57;;
84913;SDS011;75177;43.832;5.974;2024-03-29T00:45:12;20.88;;;8.75;;
84913;SDS011;75177;43.832;5.974;2024-03-29T00:47:37;19.90;;;7.45;;
84913;SDS011;75177;43.832;5.974;2024-03-29T00:50:04;22.70;;;8.38;;
84913;SDS011;75177;43.832;5.974;2024-03-29T00:52:29;26.67;;;10.55;;
84913;SDS011;75177;43.832;5.974;2024-03-29T00:54:56;20.42;;;8.90;;
84913;SDS011;75177;43.832;5.974;2024-03-29T00:57:21;19.90;;;9.50;;
84913;SDS011;75177;43.832;5.974;2024-03-29T00:59:46;26.55;;;11.00;;
84913;SDS011;75177;43.832;5.974;2024-03-29T01:02:12;39.58;;;17.50;;
84913;SDS011;75177;43.832;5.974;2024-03-29T01:04:37;33.00;;;16.50;;
84913;SDS011;75177;43.832;5.974;2024-03-29T01:07:05;34.28;;;16.85;;
84913;SDS011;75177;43.832;5.974;2024-03-29T01:09:30;37.05;;;17.15;;
84913;SDS011;75177;43.832;5.974;2024-03-29T01:11:55;28.02;;;14.30;;
84913;SDS011;75177;43.832;5.974;2024-03-29T01:14:21;27.17;;;13.82;;
84913;SDS011;75177;43.832;5.974;2024-03-29T01:16:46;40.45;;;18.70;;
84913;SDS011;75177;43.832;5.974;2024-03-29T01:19:12;24.00;;;12.32;;
84913;SDS011;75177;43.832;5.974;2024-03-29T01:21:37;46.85;;;19.48;;
84913;SDS011;75177;43.832;5.974;2024-03-29T01:24:03;37.60;;;17.35;;
84913;SDS011;75177;43.832;5.974;2024-03-29T01:26:29;23.77;;;11.02;;
84913;SDS011;75177;43.832;5.974;2024-03-29T01:28:55;19.73;;;9.70;;
84913;SDS011;75177;43.832;5.974;2024-03-29T01:31:21;19.13;;;8.57;;
84913;SDS011;75177;43.832;5.974;2024-03-29T01:33:47;25.02;;;10.27;;
84913;SDS011;75177;43.832;5.974;2024-03-29T01:36:13;21.15;;;7.63;;
84913;SDS011;75177;43.832;5.974;2024-03-29T01:38:38;19.55;;;7.68;;
84913;SDS011;75177;43.832;5.974;2024-03-29T01:41:04;17.65;;;7.03;;
84913;SDS011;75177;43.832;5.974;2024-03-29T01:43:29;31.00;;;12.30;;
84913;SDS011;75177;43.832;5.974;2024-03-29T01:45:55;32.10;;;12.98;;
84913;SDS011;75177;43.832;5.974;2024-03-29T01:48:25;27.33;;;12.68;;
84913;SDS011;75177;43.832;5.974;2024-03-29T01:50:52;29.95;;;14.52;;
84913;SDS011;75177;43.832;5.974;2024-03-29T01:53:19;31.00;;;13.85;;
84913;SDS011;75177;43.832;5.974;2024-03-29T01:55:46;27.05;;;12.50;;
84913;SDS011;75177;43.832;5.974;2024-03-29T01:58:11;35.72;;;16.90;;
84913;SDS011;75177;43.832;5.974;2024-03-29T02:00:42;37.75;;;17.60;;
84913;SDS011;75177;43.832;5.974;2024-03-29T02:03:13;35.65;;;14.95;;
84913;SDS011;75177;43.832;5.974;2024-03-29T02:05:40;41.28;;;19.55;;
84913;SDS011;75177;43.832;5.974;2024-03-29T02:08:15;43.30;;;19.92;;
84913;SDS011;75177;43.832;5.974;2024-03-29T02:10:42;36.45;;;17.42;;
84913;SDS011;75177;43.832;5.974;2024-03-29T02:13:08;49.42;;;22.23;;
84913;SDS011;75177;43.832;5.974;2024-03-29T02:15:34;66.25;;;30.65;;
84913;SDS011;75177;43.832;5.974;2024-03-29T02:18:00;56.10;;;25.25;;
84913;SDS011;75177;43.832;5.974;2024-03-29T02:20:25;74.90;;;33.15;;
84913;SDS011;75177;43.832;5.974;2024-03-29T02:22:53;50.33;;;20.33;;
84913;SDS011;75177;43.832;5.974;2024-03-29T02:25:20;45.33;;;21.10;;
84913;SDS011;75177;43.832;5.974;2024-03-29T02:27:46;46.30;;;19.75;;
84913;SDS011;75177;43.832;5.974;2024-03-29T02:30:13;50.45;;;23.75;;
84913;SDS011;75177;43.832;5.974;2024-03-29T02:32:39;55.28;;;25.13;;
84913;SDS011;75177;43.832;5.974;2024-03-29T02:35:05;63.38;;;27.05;;
84913;SDS011;75177;43.832;5.974;2024-03-29T02:37:30;57.95;;;25.15;;
84913;SDS011;75177;43.832;5.974;2024-03-29T02:39:55;47.53;;;21.25;;
84913;SDS011;75177;43.832;5.974;2024-03-29T02:42:21;62.85;;;26.83;;
84913;SDS011;75177;43.832;5.974;2024-03-29T02:44:46;47.58;;;21.08;;
84913;SDS011;75177;43.832;5.974;2024-03-29T02:47:11;65.00;;;29.17;;
84913;SDS011;75177;43.832;5.974;2024-03-29T02:49:37;64.07;;;26.38;;
84913;SDS011;75177;43.832;5.974;2024-03-29T02:52:02;42.80;;;18.58;;
84913;SDS011;75177;43.832;5.974;2024-03-29T02:54:28;46.80;;;19.20;;
84913;SDS011;75177;43.832;5.974;2024-03-29T02:56:53;47.03;;;19.45;;
84913;SDS011;75177;43.832;5.974;2024-03-29T02:59:19;78.20;;;27.95;;
84913;SDS011;75177;43.832;5.974;2024-03-29T03:01:44;85.35;;;35.33;;
84913;SDS011;75177;43.832;5.974;2024-03-29T03:04:10;58.40;;;24.42;;
84913;SDS011;75177;43.832;5.974;2024-03-29T03:06:35;76.15;;;33.95;;
84913;SDS011;75177;43.832;5.974;2024-03-29T03:09:00;90.45;;;40.30;;
84913;SDS011;75177;43.832;5.974;2024-03-29T03:11:44;84.30;;;36.70;;
84913;SDS011;75177;43.832;5.974;2024-03-29T03:14:10;94.10;;;38.60;;
84913;SDS011;75177;43.832;5.974;2024-03-29T03:16:35;116.50;;;52.65;;
84913;SDS011;75177;43.832;5.974;2024-03-29T03:19:01;84.88;;;38.50;;
84913;SDS011;75177;43.832;5.974;2024-03-29T03:21:26;88.22;;;37.35;;
84913;SDS011;75177;43.832;5.974;2024-03-29T03:23:52;104.90;;;47.17;;
84913;SDS011;75177;43.832;5.974;2024-03-29T03:26:17;90.90;;;38.33;;
84913;SDS011;75177;43.832;5.974;2024-03-29T03:28:43;97.32;;;42.58;;
84913;SDS011;75177;43.832;5.974;2024-03-29T03:31:08;123.28;;;55.45;;
84913;SDS011;75177;43.832;5.974;2024-03-29T03:33:34;95.93;;;42.20;;
84913;SDS011;75177;43.832;5.974;2024-03-29T03:35:59;81.53;;;37.17;;
84913;SDS011;75177;43.832;5.974;2024-03-29T03:38:25;79.47;;;35.67;;
84913;SDS011;75177;43.832;5.974;2024-03-29T03:40:50;72.95;;;34.35;;
84913;SDS011;75177;43.832;5.974;2024-03-29T03:43:15;70.80;;;31.67;;
84913;SDS011;75177;43.832;5.974;2024-03-29T03:45:41;78.95;;;35.22;;
84913;SDS011;75177;43.832;5.974;2024-03-29T03:48:07;87.82;;;41.33;;
84913;SDS011;75177;43.832;5.974;2024-03-29T03:52:59;100.60;;;47.63;;
84913;SDS011;75177;43.832;5.974;2024-03-29T03:55:25;81.93;;;33.97;;
84913;SDS011;75177;43.832;5.974;2024-03-29T03:57:52;69.05;;;32.80;;
84913;SDS011;75177;43.832;5.974;2024-03-29T04:00:19;66.90;;;29.08;;
84913;SDS011;75177;43.832;5.974;2024-03-29T04:02:48;67.80;;;29.40;;
84913;SDS011;75177;43.832;5.974;2024-03-29T04:05:16;68.07;;;32.28;;
84913;SDS011;75177;43.832;5.974;2024-03-29T04:07:42;86.05;;;37.42;;
84913;SDS011;75177;43.832;5.974;2024-03-29T04:10:07;77.10;;;34.55;;
84913;SDS011;75177;43.832;5.974;2024-03-29T04:12:33;55.55;;;27.00;;
84913;SDS011;75177;43.832;5.974;2024-03-29T04:14:59;79.38;;;37.88;;
84913;SDS011;75177;43.832;5.974;2024-03-29T04:17:24;60.20;;;28.90;;
84913;SDS011;75177;43.832;5.974;2024-03-29T04:19:49;84.93;;;35.85;;
84913;SDS011;75177;43.832;5.974;2024-03-29T04:22:15;70.40;;;32.97;;
84913;SDS011;75177;43.832;5.974;2024-03-29T04:24:40;59.63;;;25.48;;
84913;SDS011;75177;43.832;5.974;2024-03-29T04:27:06;48.65;;;20.95;;
84913;SDS011;75177;43.832;5.974;2024-03-29T04:29:31;47.05;;;20.63;;
84913;SDS011;75177;43.832;5.974;2024-03-29T04:31:56;66.05;;;31.95;;
84913;SDS011;75177;43.832;5.974;2024-03-29T04:34:22;48.53;;;21.58;;
84913;SDS011;75177;43.832;5.974;2024-03-29T04:36:47;57.97;;;28.63;;
84913;SDS011;75177;43.832;5.974;2024-03-29T04:39:13;52.97;;;25.80;;
84913;SDS011;75177;43.832;5.974;2024-03-29T04:41:38;49.92;;;20.67;;
84913;SDS011;75177;43.832;5.974;2024-03-29T04:44:04;49.20;;;19.70;;
84913;SDS011;75177;43.832;5.974;2024-03-29T04:46:30;32.95;;;13.25;;
84913;SDS011;75177;43.832;5.974;2024-03-29T04:48:56;39.33;;;16.20;;
84913;SDS011;75177;43.832;5.974;2024-03-29T04:51:22;39.70;;;17.20;;
84913;SDS011;75177;43.832;5.974;2024-03-29T04:53:47;32.42;;;13.70;;
84913;SDS011;75177;43.832;5.974;2024-03-29T04:56:12;42.13;;;18.13;;
84913;SDS011;75177;43.832;5.974;2024-03-29T04:58:38;31.65;;;13.93;;
84913;SDS011;75177;43.832;5.974;2024-03-29T05:01:03;41.65;;;17.70;;
84913;SDS011;75177;43.832;5.974;2024-03-29T05:03:29;34.15;;;15.15;;
84913;SDS011;75177;43.832;5.974;2024-03-29T05:05:54;43.65;;;17.00;;
84913;SDS011;75177;43.832;5.974;2024-03-29T05:08:20;46.28;;;19.75;;
84913;SDS011;75177;43.832;5.974;2024-03-29T05:10:47;52.00;;;23.15;;
84913;SDS011;75177;43.832;5.974;2024-03-29T05:13:14;48.47;;;19.45;;
84913;SDS011;75177;43.832;5.974;2024-03-29T05:15:40;50.10;;;19.83;;
84913;SDS011;75177;43.832;5.974;2024-03-29T05:18:05;51.28;;;23.83;;
84913;SDS011;75177;43.832;5.974;2024-03-29T05:20:31;45.20;;;21.52;;
84913;SDS011;75177;43.832;5.974;2024-03-29T05:22:57;35.25;;;16.65;;
84913;SDS011;75177;43.832;5.974;2024-03-29T05:25:24;42.28;;;18.95;;
84913;SDS011;75177;43.832;5.974;2024-03-29T05:27:50;40.35;;;15.25;;
84913;SDS011;75177;43.832;5.974;2024-03-29T05:30:15;33.85;;;13.75;;
84913;SDS011;75177;43.832;5.974;2024-03-29T05:32:41;34.08;;;14.20;;
84913;SDS011;75177;43.832;5.974;2024-03-29T05:35:07;43.90;;;21.25;;
84913;SDS011;75177;43.832;5.974;2024-03-29T05:37:34;43.33;;;18.97;;
84913;SDS011;75177;43.832;5.974;2024-03-29T05:40:00;35.53;;;15.73;;
84913;SDS011;75177;43.832;5.974;2024-03-29T05:42:26;35.75;;;15.02;;
84913;SDS011;75177;43.832;5.974;2024-03-29T05:44:52;37.05;;;14.68;;
84913;SDS011;75177;43.832;5.974;2024-03-29T05:47:18;40.08;;;17.05;;
84913;SDS011;75177;43.832;5.974;2024-03-29T05:49:44;35.72;;;15.32;;
84913;SDS011;75177;43.832;5.974;2024-03-29T05:52:09;39.70;;;17.00;;
84913;SDS011;75177;43.832;5.974;2024-03-29T05:54:35;34.95;;;12.60;;
84913;SDS011;75177;43.832;5.974;2024-03-29T05:57:01;40.10;;;14.95;;
84913;SDS011;75177;43.832;5.974;2024-03-29T05:59:26;35.08;;;13.60;;
84913;SDS011;75177;43.832;5.974;2024-03-29T06:01:51;35.22;;;13.52;;
84913;SDS011;75177;43.832;5.974;2024-03-29T06:04:17;34.80;;;10.80;;
84913;SDS011;75177;43.832;5.974;2024-03-29T06:06:46;26.83;;;10.40;;
84913;SDS011;75177;43.832;5.974;2024-03-29T06:09:12;29.80;;;9.70;;
84913;SDS011;75177;43.832;5.974;2024-03-29T06:11:37;33.45;;;10.07;;
84913;SDS011;75177;43.832;5.974;2024-03-29T06:14:03;33.88;;;12.05;;
84913;SDS011;75177;43.832;5.974;2024-03-29T06:16:28;32.90;;;10.88;;
84913;SDS011;75177;43.832;5.974;2024-03-29T06:19:12;43.45;;;15.88;;
84913;SDS011;75177;43.832;5.974;2024-03-29T06:21:38;48.20;;;14.05;;
84913;SDS011;75177;43.832;5.974;2024-03-29T06:24:05;33.97;;;10.10;;
84913;SDS011;75177;43.832;5.974;2024-03-29T06:26:31;36.65;;;11.55;;
84913;SDS011;75177;43.832;5.974;2024-03-29T06:28:57;38.55;;;10.77;;
84913;SDS011;75177;43.832;5.974;2024-03-29T06:31:22;45.65;;;16.75;;
84913;SDS011;75177;43.832;5.974;2024-03-29T06:33:47;42.97;;;13.55;;
84913;SDS011;75177;43.832;5.974;2024-03-29T06:36:13;31.67;;;9.23;;
84913;SDS011;75177;43.832;5.974;2024-03-29T06:38:38;34.53;;;11.57;;
84913;SDS011;75177;43.832;5.974;2024-03-29T06:41:03;33.75;;;11.02;;
84913;SDS011;75177;43.832;5.974;2024-03-29T06:43:29;39.20;;;13.13;;
84913;SDS011;75177;43.832;5.974;2024-03-29T06:45:54;33.92;;;12.30;;
84913;SDS011;75177;43.832;5.974;2024-03-29T06:48:21;38.85;;;10.85;;
84913;SDS011;75177;43.832;5.974;2024-03-29T06:50:46;42.30;;;14.80;;
84913;SDS011;75177;43.832;5.974;2024-03-29T06:53:12;48.22;;;14.00;;
84913;SDS011;75177;43.832;5.974;2024-03-29T06:55:37;44.83;;;14.50;;
84913;SDS011;75177;43.832;5.974;2024-03-29T06:58:03;46.25;;;12.23;;
84913;SDS011;75177;43.832;5.974;2024-03-29T07:00:28;48.63;;;14.55;;
84913;SDS011;75177;43.832;5.974;2024-03-29T07:02:54;37.15;;;11.63;;
84913;SDS011;75177;43.832;5.974;2024-03-29T07:05:19;44.90;;;15.15;;
84913;SDS011;75177;43.832;5.974;2024-03-29T07:07:45;46.38;;;16.00;;
84913;SDS011;75177;43.832;5.974;2024-03-29T07:10:12;33.90;;;12.83;;
84913;SDS011;75177;43.832;5.974;2024-03-29T07:12:38;40.63;;;10.75;;
84913;SDS011;75177;43.832;5.974;2024-03-29T07:15:03;34.67;;;12.80;;
84913;SDS011;75177;43.832;5.974;2024-03-29T07:17:29;37.80;;;12.20;;
84913;SDS011;75177;43.832;5.974;2024-03-29T07:19:54;48.42;;;12.57;;
84913;SDS011;75177;43.832;5.974;2024-03-29T07:22:19;36.30;;;12.52;;
84913;SDS011;75177;43.832;5.974;2024-03-29T07:24:45;44.33;;;13.23;;
84913;SDS011;75177;43.832;5.974;2024-03-29T07:27:10;55.45;;;23.27;;
84913;SDS011;75177;43.832;5.974;2024-03-29T07:29:37;43.88;;;19.00;;
84913;SDS011;75177;43.832;5.974;2024-03-29T07:32:03;58.78;;;23.23;;
84913;SDS011;75177;43.832;5.974;2024-03-29T07:34:29;53.03;;;17.33;;
84913;SDS011;75177;43.832;5.974;2024-03-29T07:36:54;48.00;;;19.13;;
84913;SDS011;75177;43.832;5.974;2024-03-29T07:39:20;58.13;;;21.42;;
84913;SDS011;75177;43.832;5.974;2024-03-29T07:41:45;40.03;;;14.90;;
84913;SDS011;75177;43.832;5.974;2024-03-29T07:44:10;36.30;;;12.30;;
84913;SDS011;75177;43.832;5.974;2024-03-29T07:46:36;41.47;;;14.57;;
84913;SDS011;75177;43.832;5.974;2024-03-29T07:49:03;39.00;;;11.63;;
84913;SDS011;75177;43.832;5.974;2024-03-29T07:51:28;32.13;;;10.50;;
84913;SDS011;75177;43.832;5.974;2024-03-29T07:53:54;34.00;;;10.05;;
84913;SDS011;75177;43.832;5.974;2024-03-29T07:56:20;33.05;;;9.18;;
84913;SDS011;75177;43.832;5.974;2024-03-29T07:58:51;33.47;;;11.00;;
84913;SDS011;75177;43.832;5.974;2024-03-29T08:01:17;41.50;;;9.75;;
84913;SDS011;75177;43.832;5.974;2024-03-29T08:03:46;27.70;;;8.65;;
84913;SDS011;75177;43.832;5.974;2024-03-29T08:06:12;32.70;;;8.32;;
84913;SDS011;75177;43.832;5.974;2024-03-29T08:08:38;32.13;;;9.45;;
84913;SDS011;75177;43.832;5.974;2024-03-29T08:11:03;48.13;;;9.70;;
84913;SDS011;75177;43.832;5.974;2024-03-29T08:13:28;28.55;;;7.72;;
84913;SDS011;75177;43.832;5.974;2024-03-29T08:15:57;47.00;;;9.10;;
84913;SDS011;75177;43.832;5.974;2024-03-29T08:18:24;40.13;;;9.00;;
84913;SDS011;75177;43.832;5.974;2024-03-29T08:20:49;33.50;;;9.05;;
84913;SDS011;75177;43.832;5.974;2024-03-29T08:23:15;46.05;;;9.63;;
84913;SDS011;75177;43.832;5.974;2024-03-29T08:25:40;32.97;;;10.35;;
84913;SDS011;75177;43.832;5.974;2024-03-29T08:28:06;30.73;;;9.75;;
84913;SDS011;75177;43.832;5.974;2024-03-29T08:30:31;44.55;;;12.73;;
84913;SDS011;75177;43.832;5.974;2024-03-29T08:33:02;38.72;;;10.20;;
84913;SDS011;75177;43.832;5.974;2024-03-29T08:35:37;37.17;;;10.50;;
84913;SDS011;75177;43.832;5.974;2024-03-29T08:38:08;28.98;;;8.48;;
84913;SDS011;75177;43.832;5.974;2024-03-29T08:40:33;39.60;;;10.65;;
84913;SDS011;75177;43.832;5.974;2024-03-29T08:42:59;41.88;;;11.45;;
84913;SDS011;75177;43.832;5.974;2024-03-29T08:45:25;46.55;;;10.57;;
84913;SDS011;75177;43.832;5.974;2024-03-29T08:47:50;38.00;;;11.32;;
84913;SDS011;75177;43.832;5.974;2024-03-29T08:50:15;34.30;;;9.90;;
84913;SDS011;75177;43.832;5.974;2024-03-29T08:52:41;44.35;;;9.25;;
84913;SDS011;75177;43.832;5.974;2024-03-29T08:55:07;37.20;;;8.82;;
84913;SDS011;75177;43.832;5.974;2024-03-29T08:57:33;39.88;;;9.38;;
84913;SDS011;75177;43.832;5.974;2024-03-29T08:59:59;36.25;;;10.02;;
84913;SDS011;75177;43.832;5.974;2024-03-29T09:02:25;35.78;;;10.20;;
84913;SDS011;75177;43.832;5.974;2024-03-29T09:04:50;43.40;;;9.32;;
84913;SDS011;75177;43.832;5.974;2024-03-29T09:07:16;36.65;;;9.30;;
84913;SDS011;75177;43.832;5.974;2024-03-29T09:09:41;31.70;;;8.82;;
84913;SDS011;75177;43.832;5.974;2024-03-29T09:12:07;43.83;;;11.32;;
84913;SDS011;75177;43.832;5.974;2024-03-29T09:14:33;51.65;;;11.77;;
84913;SDS011;75177;43.832;5.974;2024-03-29T09:16:58;44.83;;;10.23;;
84913;SDS011;75177;43.832;5.974;2024-03-29T09:19:24;45.00;;;10.02;;
84913;SDS011;75177;43.832;5.974;2024-03-29T09:21:49;52.80;;;11.30;;
84913;SDS011;75177;43.832;5.974;2024-03-29T09:24:15;52.63;;;10.77;;
84913;SDS011;75177;43.832;5.974;2024-03-29T09:26:42;46.67;;;9.30;;
84913;SDS011;75177;43.832;5.974;2024-03-29T09:29:08;48.47;;;8.20;;
84913;SDS011;75177;43.832;5.974;2024-03-29T09:31:34;48.70;;;7.75;;
84913;SDS011;75177;43.832;5.974;2024-03-29T09:34:00;38.53;;;8.13;;
84913;SDS011;75177;43.832;5.974;2024-03-29T09:36:25;47.60;;;9.85;;
84913;SDS011;75177;43.832;5.974;2024-03-29T09:38:51;32.65;;;7.65;;
84913;SDS011;75177;43.832;5.974;2024-03-29T09:41:17;46.33;;;8.98;;
84913;SDS011;75177;43.832;5.974;2024-03-29T09:43:44;40.08;;;8.90;;
84913;SDS011;75177;43.832;5.974;2024-03-29T09:46:14;52.42;;;7.80;;
84913;SDS011;75177;43.832;5.974;2024-03-29T09:48:41;44.60;;;9.68;;
84913;SDS011;75177;43.832;5.974;2024-03-29T09:51:10;26.75;;;7.28;;
84913;SDS011;75177;43.832;5.974;2024-03-29T09:53:39;30.25;;;7.72;;
84913;SDS011;75177;43.832;5.974;2024-03-29T09:58:32;36.00;;;7.35;;
84913;SDS011;75177;43.832;5.974;2024-03-29T10:00:59;43.85;;;7.80;;
84913;SDS011;75177;43.832;5.974;2024-03-29T10:03:25;36.72;;;7.57;;
84913;SDS011;75177;43.832;5.974;2024-03-29T10:06:00;35.00;;;6.47;;
84913;SDS011;75177;43.832;5.974;2024-03-29T10:08:27;33.67;;;6.55;;
84913;SDS011;75177;43.832;5.974;2024-03-29T10:10:54;41.70;;;6.82;;
84913;SDS011;75177;43.832;5.974;2024-03-29T10:13:21;60.78;;;9.05;;
84913;SDS011;75177;43.832;5.974;2024-03-29T10:15:50;41.38;;;6.88;;
84913;SDS011;75177;43.832;5.974;2024-03-29T10:18:18;39.97;;;7.45;;
84913;SDS011;75177;43.832;5.974;2024-03-29T10:20:45;44.22;;;7.03;;
84913;SDS011;75177;43.832;5.974;2024-03-29T10:23:10;29.17;;;6.88;;
84913;SDS011;75177;43.832;5.974;2024-03-29T10:25:36;40.80;;;7.80;;
84913;SDS011;75177;43.832;5.974;2024-03-29T10:28:01;43.50;;;7.28;;
84913;SDS011;75177;43.832;5.974;2024-03-29T10:30:28;39.83;;;8.32;;
84913;SDS011;75177;43.832;5.974;2024-03-29T10:32:55;40.97;;;6.65;;
84913;SDS011;75177;43.832;5.974;2024-03-29T10:35:22;41.88;;;7.38;;
84913;SDS011;75177;43.832;5.974;2024-03-29T10:37:47;50.95;;;8.27;;
84913;SDS011;75177;43.832;5.974;2024-03-29T10:40:13;47.88;;;8.05;;
84913;SDS011;75177;43.832;5.974;2024-03-29T10:42:41;60.25;;;8.85;;
84913;SDS011;75177;43.832;5.974;2024-03-29T10:45:07;67.55;;;8.30;;
84913;SDS011;75177;43.832;5.974;2024-03-29T10:47:33;64.53;;;9.85;;
84913;SDS011;75177;43.832;5.974;2024-03-29T10:49:59;61.95;;;9.00;;
84913;SDS011;75177;43.832;5.974;2024-03-29T10:52:25;68.47;;;9.43;;
84913;SDS011;75177;43.832;5.974;2024-03-29T10:54:51;66.75;;;8.95;;
84913;SDS011;75177;43.832;5.974;2024-03-29T11:05:38;84.65;;;9.40;;
84913;SDS011;75177;43.832;5.974;2024-03-29T11:08:11;73.88;;;9.30;;
84913;SDS011;75177;43.832;5.974;2024-03-29T11:10:41;70.60;;;9.00;;
84913;SDS011;75177;43.832;5.974;2024-03-29T11:13:16;74.90;;;9.10;;
84913;SDS011;75177;43.832;5.974;2024-03-29T11:15:59;73.38;;;10.00;;
84913;SDS011;75177;43.832;5.974;2024-03-29T11:18:25;67.47;;;9.65;;
84913;SDS011;75177;43.832;5.974;2024-03-29T11:20:52;59.08;;;8.55;;
84913;SDS011;75177;43.832;5.974;2024-03-29T11:23:19;63.50;;;9.50;;
84913;SDS011;75177;43.832;5.974;2024-03-29T11:25:48;64.22;;;8.60;;
84913;SDS011;75177;43.832;5.974;2024-03-29T11:28:31;76.57;;;9.77;;
84913;SDS011;75177;43.832;5.974;2024-03-29T11:31:07;60.15;;;8.48;;
84913;SDS011;75177;43.832;5.974;2024-03-29T11:33:34;69.72;;;9.57;;
84913;SDS011;75177;43.832;5.974;2024-03-29T11:36:15;66.35;;;8.75;;
84913;SDS011;75177;43.832;5.974;2024-03-29T11:38:46;71.32;;;8.57;;
84913;SDS011;75177;43.832;5.974;2024-03-29T11:41:14;62.70;;;9.13;;
84913;SDS011;75177;43.832;5.974;2024-03-29T11:43:41;73.43;;;8.65;;
84913;SDS011;75177;43.832;5.974;2024-03-29T11:46:13;63.25;;;9.60;;
84913;SDS011;75177;43.832;5.974;2024-03-29T11:48:40;59.97;;;8.95;;
84913;SDS011;75177;43.832;5.974;2024-03-29T11:51:07;69.72;;;9.32;;
84913;SDS011;75177;43.832;5.974;2024-03-29T11:53:36;69.25;;;7.97;;
84913;SDS011;75177;43.832;5.974;2024-03-29T11:56:02;69.60;;;8.60;;
84913;SDS011;75177;43.832;5.974;2024-03-29T11:58:29;67.20;;;9.00;;
84913;SDS011;75177;43.832;5.974;2024-03-29T12:00:57;69.60;;;9.20;;
84913;SDS011;75177;43.832;5.974;2024-03-29T12:03:23;94.97;;;9.52;;
84913;SDS011;75177;43.832;5.974;2024-03-29T12:05:51;74.75;;;9.05;;
84913;SDS011;75177;43.832;5.974;2024-03-29T12:08:19;91.03;;;9.48;;
84913;SDS011;75177;43.832;5.974;2024-03-29T12:10:45;66.38;;;8.30;;
84913;SDS011;75177;43.832;5.974;2024-03-29T12:13:10;76.03;;;9.65;;
84913;SDS011;75177;43.832;5.974;2024-03-29T12:15:36;82.80;;;9.50;;
84913;SDS011;75177;43.832;5.974;2024-03-29T12:18:02;90.68;;;9.35;;
84913;SDS011;75177;43.832;5.974;2024-03-29T12:20:34;63.67;;;8.93;;
84913;SDS011;75177;43.832;5.974;2024-03-29T12:23:02;75.97;;;9.75;;
84913;SDS011;75177;43.832;5.974;2024-03-29T12:25:29;74.65;;;8.43;;
84913;SDS011;75177;43.832;5.974;2024-03-29T12:27:56;81.30;;;8.43;;
84913;SDS011;75177;43.832;5.974;2024-03-29T12:30:23;68.95;;;9.38;;
84913;SDS011;75177;43.832;5.974;2024-03-29T12:32:48;85.78;;;9.13;;
84913;SDS011;75177;43.832;5.974;2024-03-29T12:35:15;80.22;;;8.98;;
84913;SDS011;75177;43.832;5.974;2024-03-29T12:37:47;81.50;;;9.25;;
84913;SDS011;75177;43.832;5.974;2024-03-29T12:40:15;72.55;;;10.48;;
84913;SDS011;75177;43.832;5.974;2024-03-29T12:42:47;75.15;;;9.20;;
84913;SDS011;75177;43.832;5.974;2024-03-29T12:45:19;72.35;;;9.30;;
84913;SDS011;75177;43.832;5.974;2024-03-29T12:47:45;94.55;;;10.82;;
84913;SDS011;75177;43.832;5.974;2024-03-29T12:50:14;73.38;;;8.13;;
84913;SDS011;75177;43.832;5.974;2024-03-29T12:55:14;81.85;;;10.02;;
84913;SDS011;75177;43.832;5.974;2024-03-29T12:57:43;85.88;;;9.20;;
84913;SDS011;75177;43.832;5.974;2024-03-29T13:00:09;85.20;;;9.93;;
84913;SDS011;75177;43.832;5.974;2024-03-29T13:02:35;74.93;;;9.13;;
84913;SDS011;75177;43.832;5.974;2024-03-29T13:05:02;74.78;;;9.52;;
84913;SDS011;75177;43.832;5.974;2024-03-29T13:09:54;73.60;;;9.23;;
84913;SDS011;75177;43.832;5.974;2024-03-29T13:12:20;80.80;;;9.48;;
84913;SDS011;75177;43.832;5.974;2024-03-29T13:14:46;77.35;;;9.77;;
84913;SDS011;75177;43.832;5.974;2024-03-29T13:17:11;70.70;;;8.05;;
84913;SDS011;75177;43.832;5.974;2024-03-29T13:19:36;94.88;;;9.90;;
84913;SDS011;75177;43.832;5.974;2024-03-29T13:22:02;93.00;;;9.15;;
84913;SDS011;75177;43.832;5.974;2024-03-29T13:24:27;80.03;;;8.45;;
84913;SDS011;75177;43.832;5.974;2024-03-29T13:26:54;97.00;;;8.65;;
84913;SDS011;75177;43.832;5.974;2024-03-29T13:29:20;81.72;;;8.80;;
84913;SDS011;75177;43.832;5.974;2024-03-29T13:31:46;86.97;;;8.75;;
84913;SDS011;75177;43.832;5.974;2024-03-29T13:34:11;85.97;;;9.00;;
84913;SDS011;75177;43.832;5.974;2024-03-29T13:36:38;77.97;;;8.48;;
84913;SDS011;75177;43.832;5.974;2024-03-29T13:39:04;88.43;;;9.00;;
84913;SDS011;75177;43.832;5.974;2024-03-29T13:41:30;69.97;;;9.13;;
84913;SDS011;75177;43.832;5.974;2024-03-29T13:43:55;89.80;;;9.18;;
84913;SDS011;75177;43.832;5.974;2024-03-29T13:46:21;91.55;;;9.35;;
84913;SDS011;75177;43.832;5.974;2024-03-29T13:48:46;90.70;;;9.15;;
84913;SDS011;75177;43.832;5.974;2024-03-29T13:51:12;77.38;;;9.77;;
84913;SDS011;75177;43.832;5.974;2024-03-29T13:53:38;78.15;;;9.32;;
84913;SDS011;75177;43.832;5.974;2024-03-29T13:56:06;80.28;;;9.23;;
84913;SDS011;75177;43.832;5.974;2024-03-29T13:58:31;82.50;;;8.70;;
84913;SDS011;75177;43.832;5.974;2024-03-29T14:00:56;79.20;;;9.30;;
84913;SDS011;75177;43.832;5.974;2024-03-29T14:03:25;89.70;;;10.38;;
84913;SDS011;75177;43.832;5.974;2024-03-29T14:05:51;93.95;;;9.43;;
84913;SDS011;75177;43.832;5.974;2024-03-29T14:08:16;99.75;;;10.48;;
84913;SDS011;75177;43.832;5.974;2024-03-29T14:10:42;76.70;;;8.57;;
84913;SDS011;75177;43.832;5.974;2024-03-29T14:13:07;83.85;;;9.27;;
84913;SDS011;75177;43.832;5.974;2024-03-29T14:15:34;78.57;;;9.18;;
84913;SDS011;75177;43.832;5.974;2024-03-29T14:18:00;95.15;;;9.93;;
84913;SDS011;75177;43.832;5.974;2024-03-29T14:20:25;83.47;;;9.38;;
84913;SDS011;75177;43.832;5.974;2024-03-29T14:22:50;102.38;;;9.55;;
84913;SDS011;75177;43.832;5.974;2024-03-29T14:25:19;104.65;;;10.27;;
84913;SDS011;75177;43.832;5.974;2024-03-29T14:27:45;87.47;;;10.32;;
84913;SDS011;75177;43.832;5.974;2024-03-29T14:30:19;95.35;;;9.02;;
84913;SDS011;75177;43.832;5.974;2024-03-29T14:32:50;99.72;;;9.32;;
84913;SDS011;75177;43.832;5.974;2024-03-29T14:35:16;107.15;;;9.38;;
84913;SDS011;75177;43.832;5.974;2024-03-29T14:37:45;97.47;;;8.88;;
84913;SDS011;75177;43.832;5.974;2024-03-29T14:40:10;73.90;;;8.55;;
84913;SDS011;75177;43.832;5.974;2024-03-29T14:42:43;104.25;;;10.05;;